Terminal Aerodrome Forecast
Issued by NWS Jackson, MS

Home | Current Version | Previous Version | Text Only | Print | Product List | Glossary On
Versions: 1 2 3 4 5 6 7 8 9 10 11 12 13
000
FTUS44 KJAN 171423 AAA
TAFGWO
TAF AMD
KGWO 171423Z 1714/1812 12010KT P6SM SCT006 OVC060
     FM171600 14005KT P6SM BKN008 BKN100
     FM180100 36003KT 4SM BR OVC005=

USA.gov is the U.S. government's official web portal to all federal, state and local government web resources and services.